createdAt,value
2023-02-27T00:02:18.931Z,101488.22
2023-02-27T00:07:15.351Z,101482.16
2023-02-27T00:12:12.105Z,101482.31
2023-02-27T00:17:08.604Z,101484.19
2023-02-27T00:22:05.286Z,101481.63
2023-02-27T00:27:01.806Z,101486.00
2023-02-27T00:31:58.268Z,101480.13
2023-02-27T00:36:54.710Z,101495.00
2023-02-27T00:41:51.044Z,101486.44
2023-02-27T00:46:47.474Z,101485.72
2023-02-27T00:51:43.855Z,101477.97
2023-02-27T00:56:41.114Z,101487.56
2023-02-27T01:01:37.767Z,101485.00
2023-02-27T01:06:34.155Z,101473.66
2023-02-27T01:11:30.797Z,101477.81
2023-02-27T01:16:27.399Z,101468.13
2023-02-27T01:21:24.856Z,101470.66
2023-02-27T01:26:21.539Z,101477.66
2023-02-27T01:31:18.012Z,101485.44
2023-02-27T01:36:14.389Z,101482.81
2023-02-27T01:41:11.039Z,101483.66
2023-02-27T01:46:07.399Z,101483.59
2023-02-27T01:51:09.069Z,101479.31
2023-02-27T01:56:10.406Z,101481.81
2023-02-27T02:01:07.070Z,101478.34
2023-02-27T02:06:06.033Z,101477.19
2023-02-27T02:11:03.057Z,101478.22
2023-02-27T02:16:26.268Z,101483.47
2023-02-27T02:21:49.636Z,101480.06
2023-02-27T02:26:53.445Z,101480.16
2023-02-27T02:32:08.713Z,101484.59
2023-02-27T02:37:31.026Z,101487.28
2023-02-27T02:42:39.624Z,101498.53
2023-02-27T02:48:04.523Z,101494.97
2023-02-27T02:53:08.441Z,101497.53
2023-02-27T02:58:14.595Z,101485.50
2023-02-27T03:03:26.113Z,101489.13
2023-02-27T03:08:28.451Z,101485.84
2023-02-27T03:13:30.982Z,101482.41
2023-02-27T03:18:34.829Z,101483.44
2023-02-27T03:23:38.250Z,101488.72
2023-02-27T03:28:39.315Z,101487.91
2023-02-27T03:33:42.438Z,101487.16
2023-02-27T03:39:05.567Z,101496.72
2023-02-27T03:44:16.913Z,101499.31
2023-02-27T03:49:13.276Z,101499.34
2023-02-27T03:54:16.869Z,101514.06
2023-02-27T03:59:13.957Z,101510.59
2023-02-27T04:04:13.565Z,101526.22
2023-02-27T04:09:43.030Z,101526.22
2023-02-27T04:14:52.164Z,101533.19
2023-02-27T04:20:17.322Z,101536.63
2023-02-27T04:25:39.442Z,101540.97
2023-02-27T04:31:02.277Z,101545.28
2023-02-27T04:36:18.455Z,101547.03
2023-02-27T04:41:23.059Z,101546.16
2023-02-27T04:46:24.664Z,101544.41
2023-02-27T04:51:26.490Z,101543.56
2023-02-27T04:56:35.282Z,101544.41
2023-02-27T05:01:36.901Z,101545.28
2023-02-27T05:06:36.612Z,101552.22
2023-02-27T05:11:42.736Z,101555.69
2023-02-27T05:16:44.539Z,101557.41
2023-02-27T05:22:24.420Z,101559.13
2023-02-27T05:27:35.997Z,101562.56
2023-02-27T05:32:45.081Z,101571.25
2023-02-27T05:37:56.124Z,101565.22
2023-02-27T05:43:02.814Z,101558.28
2023-02-27T05:48:04.890Z,101560.00
2023-02-27T05:53:04.498Z,101560.88
2023-02-27T05:58:10.167Z,101563.47
2023-02-27T06:03:06.721Z,101558.28
2023-02-27T06:08:03.745Z,101564.34
2023-02-27T06:13:00.092Z,101571.25
2023-02-27T06:17:56.620Z,101579.94
2023-02-27T06:22:52.979Z,101586.03
2023-02-27T06:27:49.382Z,101593.81
2023-02-27T06:32:47.046Z,101599.00
2023-02-27T06:37:43.400Z,101611.09
2023-02-27T06:42:44.001Z,101616.31
2023-02-27T06:47:41.197Z,101621.44
2023-02-27T06:52:38.932Z,101622.19
2023-02-27T06:57:35.526Z,101624.59
2023-02-27T07:02:32.129Z,101633.06
2023-02-27T07:07:33.199Z,101640.25
2023-02-27T07:12:32.943Z,101649.84
2023-02-27T07:17:29.408Z,101652.19
2023-02-27T07:22:25.716Z,101643.47
2023-02-27T07:27:22.073Z,101645.03
2023-02-27T07:32:18.407Z,101655.22
2023-02-27T07:37:15.005Z,101649.41
2023-02-27T07:42:11.493Z,101658.69
2023-02-27T07:47:07.900Z,101660.41
2023-02-27T07:52:04.316Z,101663.06
2023-02-27T07:57:00.992Z,101653.22
2023-02-27T08:01:57.352Z,101655.69
2023-02-27T08:06:53.663Z,101653.88
2023-02-27T08:11:50.037Z,101644.94
2023-02-27T08:16:46.328Z,101652.22
2023-02-27T08:21:42.966Z,101658.34
2023-02-27T08:26:39.379Z,101658.38
2023-02-27T08:31:35.824Z,101653.69
2023-02-27T08:36:32.460Z,101659.13
2023-02-27T08:41:28.763Z,101668.84
2023-02-27T08:46:25.448Z,101664.28
2023-02-27T08:51:22.352Z,101663.75
2023-02-27T08:56:18.750Z,101660.91
2023-02-27T09:01:15.103Z,101653.56
2023-02-27T09:06:11.704Z,101654.06
2023-02-27T09:11:08.113Z,101653.22
2023-02-27T09:16:04.808Z,101660.59
2023-02-27T09:21:01.191Z,101660.47
2023-02-27T09:25:57.560Z,101665.22
2023-02-27T09:30:53.928Z,101663.75
2023-02-27T09:35:50.230Z,101673.06
2023-02-27T09:40:49.725Z,101679.19
2023-02-27T09:45:50.164Z,101679.97
2023-02-27T09:50:52.437Z,101687.97
2023-02-27T09:55:50.111Z,101690.00
2023-02-27T10:00:57.406Z,101692.25
2023-02-27T10:06:27.515Z,101690.28
2023-02-27T10:11:44.575Z,101687.22
2023-02-27T10:16:42.420Z,101667.19
2023-02-27T10:21:43.397Z,101665.47
2023-02-27T10:26:43.733Z,101659.97
2023-02-27T10:31:41.106Z,101670.03
2023-02-27T10:36:37.657Z,101661.44
2023-02-27T10:41:36.182Z,101668.34
2023-02-27T10:46:38.619Z,101667.78
2023-02-27T10:51:38.476Z,101659.72
2023-02-27T10:56:35.630Z,101661.84
2023-02-27T11:01:44.395Z,101657.03
2023-02-27T11:06:42.223Z,101656.44
2023-02-27T11:11:39.197Z,101648.22
2023-02-27T11:16:50.163Z,101649.16
2023-02-27T11:22:00.188Z,101639.31
2023-02-27T11:26:59.712Z,101636.22
2023-02-27T11:32:13.415Z,101630.88
2023-02-27T11:37:30.559Z,101620.97
2023-02-27T11:42:32.149Z,101610.38
2023-02-27T11:47:33.322Z,101611.69
2023-02-27T11:52:49.497Z,101623.44
2023-02-27T11:57:50.550Z,101614.38
2023-02-27T12:03:02.491Z,101609.19
2023-02-27T12:08:13.816Z,101614.34
2023-02-27T12:13:26.026Z,101615.97
2023-02-27T12:18:35.763Z,101620.00
2023-02-27T12:23:47.756Z,101620.19
2023-02-27T12:29:17.578Z,101615.72
2023-02-27T12:34:35.873Z,101615.25
2023-02-27T12:39:33.178Z,101616.09
2023-02-27T12:44:54.100Z,101622.97
2023-02-27T12:50:00.483Z,101610.16
2023-02-27T12:55:13.258Z,101608.53
2023-02-27T13:00:22.324Z,101619.22
2023-02-27T13:05:24.816Z,101618.81
2023-02-27T13:10:34.408Z,101607.34
2023-02-27T13:15:37.152Z,101618.09
2023-02-27T13:20:44.438Z,101612.78
2023-02-27T13:25:44.870Z,101602.59
2023-02-27T13:31:17.228Z,101589.75
2023-02-27T13:36:25.423Z,101590.41
2023-02-27T13:41:24.476Z,101587.19
2023-02-27T13:46:32.215Z,101580.66
2023-02-27T13:51:50.809Z,101582.75
2023-02-27T13:56:51.162Z,101574.09
2023-02-27T14:02:16.761Z,101572.47
2023-02-27T14:07:18.644Z,101569.03
2023-02-27T14:12:46.372Z,101586.91
2023-02-27T14:17:45.479Z,101584.69
2023-02-27T14:22:41.793Z,101576.59
2023-02-27T14:27:44.096Z,101575.38
2023-02-27T14:32:40.757Z,101561.63
2023-02-27T14:37:37.267Z,101571.75
2023-02-27T14:43:03.932Z,101573.63
2023-02-27T14:48:00.496Z,101576.34
2023-02-27T14:52:56.947Z,101593.13
2023-02-27T14:58:17.847Z,101591.91
2023-02-27T15:03:22.585Z,101586.16
2023-02-27T15:08:26.945Z,101590.41
2023-02-27T15:13:34.550Z,101593.66
2023-02-27T15:18:30.950Z,101599.97
2023-02-27T15:23:28.700Z,101601.50
2023-02-27T15:28:30.318Z,101606.63
2023-02-27T15:33:32.359Z,101606.53
2023-02-27T15:38:35.134Z,101606.88
2023-02-27T15:43:31.948Z,101615.47
2023-02-27T15:48:29.812Z,101621.03
2023-02-27T15:53:27.995Z,101620.00
2023-02-27T15:58:34.134Z,101633.34
2023-02-27T16:03:43.940Z,101628.25
2023-02-27T16:08:46.506Z,101625.94
2023-02-27T16:13:42.865Z,101619.88
2023-02-27T16:18:48.615Z,101630.91
2023-02-27T16:23:46.456Z,101623.28
2023-02-27T16:28:55.747Z,101625.81
2023-02-27T16:33:53.840Z,101626.06
2023-02-27T16:38:50.286Z,101626.72
2023-02-27T16:43:47.839Z,101624.44
2023-02-27T16:48:44.207Z,101641.13
2023-02-27T16:53:40.753Z,101634.00
2023-02-27T16:58:37.750Z,101636.47
2023-02-27T17:03:34.844Z,101640.63
2023-02-27T17:08:31.340Z,101641.03
2023-02-27T17:13:27.745Z,101660.97
2023-02-27T17:18:24.168Z,101660.75
2023-02-27T17:23:20.498Z,101668.78
2023-02-27T17:28:16.836Z,101671.41
2023-02-27T17:33:13.228Z,101676.44
2023-02-27T17:38:09.759Z,101672.75
2023-02-27T17:43:06.439Z,101671.00
2023-02-27T17:48:02.924Z,101678.88
2023-02-27T17:52:59.329Z,101680.94
2023-02-27T17:57:55.675Z,101679.41
2023-02-27T18:02:52.066Z,101679.50
2023-02-27T18:07:48.613Z,101681.28
2023-02-27T18:12:45.151Z,101686.78
2023-02-27T18:17:43.422Z,101686.88
2023-02-27T18:22:39.906Z,101689.72
2023-02-27T18:27:36.444Z,101691.47
2023-02-27T18:32:32.865Z,101694.25
2023-02-27T18:37:29.270Z,101696.16
2023-02-27T18:42:25.703Z,101695.56
2023-02-27T18:47:22.060Z,101690.66
2023-02-27T18:52:18.593Z,101698.69
2023-02-27T18:57:15.565Z,101705.88
2023-02-27T19:02:17.621Z,101705.09
2023-02-27T19:07:15.272Z,101708.72
2023-02-27T19:12:11.668Z,101709.69
2023-02-27T19:17:08.835Z,101706.03
2023-02-27T19:22:05.268Z,101720.03
2023-02-27T19:27:01.699Z,101721.16
2023-02-27T19:31:58.144Z,101723.25
2023-02-27T19:36:54.575Z,101725.22
2023-02-27T19:41:50.978Z,101717.50
2023-02-27T19:46:51.268Z,101711.47
2023-02-27T19:51:47.792Z,101708.97
2023-02-27T19:56:44.455Z,101705.56
2023-02-27T20:01:41.460Z,101708.34
2023-02-27T20:06:41.584Z,101707.41
2023-02-27T20:11:38.018Z,101716.13
2023-02-27T20:16:36.720Z,101714.25
2023-02-27T20:21:34.326Z,101721.94
2023-02-27T20:26:34.112Z,101724.34
2023-02-27T20:31:32.603Z,101724.47
2023-02-27T20:36:29.270Z,101722.66
2023-02-27T20:41:29.052Z,101726.03
2023-02-27T20:46:28.496Z,101722.44
2023-02-27T20:51:25.357Z,101722.66
2023-02-27T20:56:24.553Z,101722.03
2023-02-27T21:01:21.961Z,101727.59
2023-02-27T21:06:19.116Z,101718.22
2023-02-27T21:11:18.099Z,101735.91
2023-02-27T21:16:15.409Z,101736.22
2023-02-27T21:21:15.732Z,101733.84
2023-02-27T21:26:20.998Z,101740.13
2023-02-27T21:31:19.672Z,101743.78
2023-02-27T21:36:16.995Z,101750.88
2023-02-27T21:41:13.381Z,101752.69
2023-02-27T21:46:12.623Z,101763.09
2023-02-27T21:51:09.386Z,101753.72
2023-02-27T21:56:08.166Z,101758.44
2023-02-27T22:01:15.823Z,101755.03
2023-02-27T22:06:13.775Z,101753.47
2023-02-27T22:11:10.737Z,101760.66
2023-02-27T22:16:10.075Z,101758.06
2023-02-27T22:21:18.975Z,101753.63
2023-02-27T22:26:19.842Z,101757.19
2023-02-27T22:31:18.490Z,101752.00
2023-02-27T22:36:18.373Z,101760.72
2023-02-27T22:41:27.068Z,101769.50
2023-02-27T22:46:24.722Z,101761.69
2023-02-27T22:51:21.577Z,101768.75
2023-02-27T22:56:18.427Z,101768.88
2023-02-27T23:01:17.857Z,101772.53
2023-02-27T23:06:17.038Z,101775.22
2023-02-27T23:11:15.019Z,101765.69
2023-02-27T23:16:12.375Z,101775.41
2023-02-27T23:21:10.184Z,101777.25
2023-02-27T23:26:06.891Z,101781.66
2023-02-27T23:31:05.496Z,101778.22
2023-02-27T23:36:03.001Z,101789.53
2023-02-27T23:41:05.485Z,101790.47
2023-02-27T23:46:09.740Z,101787.84
2023-02-27T23:51:07.505Z,101782.59
2023-02-27T23:56:24.987Z,101789.56
